Hartford, Connecticut
Traffic Map
Current Weather Conditions
Hartford, Connecticut
Overcast Light Snow
Overcast
-6°
Feels Like: -10°
Wind Chill: -10° Ceiling: 4400
Heat Index: -6° Visibility: 5mi
Dew Point: -8° Wind: 6mph
Humidity: 85% Direction: 10° (N)
Pressure: 29.74in Gusts: 0mph
Raw Report DataKHFD 090953Z AUTO 01005KT 5SM -SN BR OVC044 M06/M08 A2974 RMK AO2 SLP070 P0000 T10611083
Traffic Incident Summary
Active as of:
Severity:
Category:
InformationThere was an issue retrieving the traffic information for this location. Please try a different location or try again shortly.
Advertisements
Track Severe Weather on mobile